Etusivu
METAR-TAF:

METAR-TAF

Lentoasemat :

Touggourt, Algeria

Leveyspiiri: 33-07N, Pituuspiiri: 006-08E, korkeus merenpinnasta: 85 m

Tämänhetkinen sää

Tämä raportti tehtiin 59 minuuttia sitten, kello 08.00 UTC
Tuuli 2 kn eri suunnista
Lämpötila 31°C
Kosteus 24%
Ilmanpaine 1017 hPa
Näkyvyys 10 km tai enemmän
Muutamia pilviä 4000 ft:n korkeudessa
Hajanaisia pilviä 10000 ft:n korkeudessa

METAR: DAUK 140800Z VRB02KT 9999 FEW040 SCT100 31/08 Q1017

Aika: 09:59 (08:59 UTC)

Sääennuste

Tämä raportti tehtiin 59 minuuttia sitten, kello 08.00 UTC
Ennuste voimassa 14. päivästä klo 09 UTC - 14. päivään klo 18 UTC
Tuuli 6 kn idästä
Näkyvyys 10 km tai enemmän
Muutamia pilviä 3300 ft:n korkeudessa
Hajanaisia pilviä 10000 ft:n korkeudessa
Todennäköisyys 40% :
Ajoittain
14. päivästä klo 09 UTC - 14. päivään klo 15 UTC
Muutamia pilviä 4000 ft:n korkeudessa, Kasvava cumulus-pilvi.

TAF: DAUK 140800Z 1409/1418 10006KT 9999 FEW033 SCT100 PROB40 TEMPO 1409/1415 FEW040TCU

Säähavainnot ja -ennusteet yli 4000 lentoasemalta (METAR- ja TAF-raportit).

Käytössä olevat sääasemat on merkitty karttaan keltaisilla ja punaisilla pisteillä.

Aseta hiiri pisteen päälle nähdäksesi sääaseman nimen.

Klikkaa sitten nähdäksesi säähavainnot ja -ennusteet.

Kartan vaihtaminen: klikkaa mustalla rastilla varustettuja vihreitä pisteitä, niin voit zoomata sisään; viivalla varustettua vihreää pistettä, niin voit zoomata ulos tai vihreitä nuolia, niin pääset viereisille kartoille.


METAR-TAF: